createdAt,value
2022-09-12T00:01:27.676Z,99988.69
2022-09-12T00:03:58.277Z,99986.97
2022-09-12T00:06:28.297Z,99985.31
2022-09-12T00:08:58.234Z,99987.06
2022-09-12T00:11:27.614Z,99992.25
2022-09-12T00:13:59.412Z,99987.97
2022-09-12T00:16:30.685Z,99983.66
2022-09-12T00:18:59.502Z,99981.94
2022-09-12T00:21:28.132Z,99981.13
2022-09-12T00:23:56.876Z,99973.31
2022-09-12T00:26:25.335Z,99964.78
2022-09-12T00:28:53.738Z,99975.13
2022-09-12T00:31:25.133Z,99969.09
2022-09-12T00:33:54.247Z,99961.34
2022-09-12T00:36:24.523Z,99944.97
2022-09-12T00:38:53.613Z,99950.16
2022-09-12T00:41:24.147Z,99955.31
2022-09-12T00:43:54.658Z,99961.38
2022-09-12T00:46:35.784Z,99962.25
2022-09-12T00:49:07.884Z,99951.06
2022-09-12T00:51:38.520Z,99950.16
2022-09-12T00:54:11.655Z,99948.44
2022-09-12T00:56:42.760Z,99949.34
2022-09-12T00:59:14.201Z,99954.53
2022-09-12T01:01:44.810Z,99924.41
2022-09-12T01:04:14.058Z,99943.34
2022-09-12T01:06:44.531Z,99925.28
2022-09-12T01:09:16.352Z,99920.97
2022-09-12T01:11:47.182Z,99949.41
2022-09-12T01:14:16.392Z,99949.44
2022-09-12T01:16:46.379Z,99940.88
2022-09-12T01:19:32.072Z,99916.75
2022-09-12T01:22:13.703Z,99934.00
2022-09-12T01:24:54.344Z,99917.66
2022-09-12T01:27:50.414Z,99936.63
2022-09-12T01:30:33.521Z,99935.78
2022-09-12T01:33:11.826Z,99934.06
2022-09-12T01:35:45.230Z,99904.75
2022-09-12T01:38:18.362Z,99917.69
2022-09-12T01:40:50.693Z,99922.88
2022-09-12T01:43:22.308Z,99918.56
2022-09-12T01:45:58.415Z,99891.88
2022-09-12T01:48:31.295Z,99935.81
2022-09-12T01:51:06.267Z,99909.94
2022-09-12T01:53:37.842Z,99914.25
2022-09-12T01:56:10.098Z,99890.16
2022-09-12T01:58:43.786Z,99937.50
2022-09-12T02:01:16.661Z,99929.75
2022-09-12T02:03:47.863Z,99933.19
2022-09-12T02:06:20.653Z,99922.03
2022-09-12T02:08:51.867Z,99926.34
2022-09-12T02:11:20.697Z,99922.84
2022-09-12T02:13:51.792Z,99928.03
2022-09-12T02:16:25.321Z,99934.06
2022-09-12T02:18:57.454Z,99931.44
2022-09-12T02:21:27.491Z,99940.94
2022-09-12T02:23:58.442Z,99933.13
2022-09-12T02:26:31.198Z,99911.56
2022-09-12T02:28:59.532Z,99912.44
2022-09-12T02:31:32.673Z,99899.53
2022-09-12T02:34:10.409Z,99926.22
2022-09-12T02:36:47.770Z,99914.97
2022-09-12T02:39:20.057Z,99918.41
2022-09-12T02:41:49.059Z,99916.66
2022-09-12T02:44:17.438Z,99880.53
2022-09-12T02:46:50.137Z,99915.81
2022-09-12T02:49:18.866Z,99908.09
2022-09-12T02:51:48.015Z,99870.22
2022-09-12T02:54:17.441Z,99919.31
2022-09-12T02:56:46.898Z,99904.66
2022-09-12T02:59:17.453Z,99923.66
2022-09-12T03:02:13.100Z,99921.06
2022-09-12T03:04:55.496Z,99926.22
2022-09-12T03:07:35.476Z,99896.88
2022-09-12T03:10:09.284Z,99923.59
2022-09-12T03:12:48.978Z,99900.34
2022-09-12T03:15:28.082Z,99896.88
2022-09-12T03:18:09.534Z,99914.09
2022-09-12T03:20:46.739Z,99867.56
2022-09-12T03:23:25.302Z,99922.72
2022-09-12T03:25:57.485Z,99922.72
2022-09-12T03:28:25.875Z,99920.97
2022-09-12T03:30:56.016Z,99919.28
2022-09-12T03:33:26.663Z,99916.69
2022-09-12T03:35:56.419Z,99897.75
2022-09-12T03:38:24.779Z,99926.16
2022-09-12T03:40:56.879Z,99925.28
2022-09-12T03:43:25.206Z,99920.13
2022-09-12T03:45:53.687Z,99927.03
2022-09-12T03:48:24.679Z,99927.03
2022-09-12T03:50:54.364Z,99930.56
2022-09-12T03:53:22.924Z,99896.13
2022-09-12T03:55:51.279Z,99927.97
2022-09-12T03:58:19.589Z,99927.16
2022-09-12T04:00:47.950Z,99924.59
2022-09-12T04:03:16.381Z,99922.84
2022-09-12T04:05:44.671Z,99925.44
2022-09-12T04:08:14.563Z,99879.78
2022-09-12T04:10:44.579Z,99925.44
2022-09-12T04:13:12.977Z,99922.81
2022-09-12T04:15:41.303Z,99897.00
2022-09-12T04:18:09.843Z,99911.63
2022-09-12T04:20:38.189Z,99929.72
2022-09-12T04:23:06.620Z,99925.38
2022-09-12T04:25:36.381Z,99915.94
2022-09-12T04:28:04.722Z,99914.16
2022-09-12T04:30:34.572Z,99916.72
2022-09-12T04:33:07.896Z,99914.09
2022-09-12T04:35:36.869Z,99882.25
2022-09-12T04:38:05.274Z,99915.03
2022-09-12T04:40:33.597Z,99921.03
2022-09-12T04:43:03.379Z,99916.75
2022-09-12T04:45:31.957Z,99822.88
2022-09-12T04:48:00.317Z,99923.50
2022-09-12T04:50:29.050Z,99892.50
2022-09-12T04:52:57.383Z,99891.63
2022-09-12T04:55:26.359Z,99901.03
2022-09-12T04:57:54.719Z,99909.59
2022-09-12T05:00:25.017Z,99904.44
2022-09-12T05:02:53.437Z,99898.47
2022-09-12T05:05:22.347Z,99860.59
2022-09-12T05:07:52.205Z,99931.25
2022-09-12T05:10:20.540Z,99872.72
2022-09-12T05:12:49.016Z,99866.69
2022-09-12T05:15:18.171Z,99933.00
2022-09-12T05:17:48.079Z,99912.34
2022-09-12T05:20:17.599Z,99927.78
2022-09-12T05:22:46.015Z,99920.00
2022-09-12T05:25:14.482Z,99921.72
2022-09-12T05:27:44.019Z,99922.66
2022-09-12T05:30:15.009Z,99870.94
2022-09-12T05:32:43.522Z,99926.88
2022-09-12T05:35:13.317Z,99917.28
2022-09-12T05:37:41.638Z,99927.72
2022-09-12T05:40:11.259Z,99927.81
2022-09-12T05:42:39.633Z,99882.22
2022-09-12T05:45:08.833Z,99916.66
2022-09-12T05:47:37.582Z,99924.41
2022-09-12T05:50:10.977Z,99924.34
2022-09-12T05:52:40.734Z,99901.09
2022-09-12T05:55:09.869Z,99803.81
2022-09-12T05:57:39.558Z,99894.94
2022-09-12T06:00:09.999Z,99892.22
2022-09-12T06:02:40.567Z,99910.28
2022-09-12T06:05:09.593Z,99905.03
2022-09-12T06:07:38.039Z,99886.94
2022-09-12T06:10:08.976Z,99905.81
2022-09-12T06:12:37.527Z,99908.47
2022-09-12T06:15:08.256Z,99905.78
2022-09-12T06:17:36.804Z,99887.81
2022-09-12T06:20:05.559Z,99905.94
2022-09-12T06:22:33.996Z,99903.34
2022-09-12T06:25:03.241Z,99848.91
2022-09-12T06:27:33.003Z,99912.56
2022-09-12T06:30:01.395Z,99896.88
2022-09-12T06:32:32.431Z,99894.31
2022-09-12T06:35:00.794Z,99850.50
2022-09-12T06:37:29.232Z,99898.47
2022-09-12T06:39:57.588Z,99885.59
2022-09-12T06:42:25.927Z,99876.16
2022-09-12T06:45:00.392Z,99884.78
2022-09-12T06:47:28.711Z,99906.00
2022-09-12T06:49:58.377Z,99845.56
2022-09-12T06:52:26.760Z,99894.56
2022-09-12T06:54:55.066Z,99897.94
2022-09-12T06:57:23.342Z,99866.13
2022-09-12T06:59:51.995Z,99898.94
2022-09-12T07:02:22.012Z,99887.81
2022-09-12T07:04:51.894Z,99835.47
2022-09-12T07:07:20.819Z,99898.06
2022-09-12T07:09:49.563Z,99911.03
2022-09-12T07:12:18.233Z,99914.63
2022-09-12T07:14:46.564Z,99857.63
2022-09-12T07:17:15.027Z,99856.94
2022-09-12T07:19:44.811Z,99903.34
2022-09-12T07:22:13.328Z,99909.34
2022-09-12T07:24:42.045Z,99901.00
2022-09-12T07:27:10.408Z,99910.88
2022-09-12T07:29:38.808Z,99885.28
2022-09-12T07:32:07.818Z,99893.75
2022-09-12T07:34:37.385Z,99909.31
2022-09-12T07:37:07.793Z,99910.56
2022-09-12T07:39:36.294Z,99882.34
2022-09-12T07:42:04.734Z,99917.25
2022-09-12T07:44:33.087Z,99915.22
2022-09-12T07:47:02.176Z,99911.22
2022-09-12T07:49:30.708Z,99899.31
2022-09-12T07:51:59.318Z,99914.81
2022-09-12T07:54:29.535Z,99899.38
2022-09-12T07:56:58.004Z,99858.94
2022-09-12T07:59:50.837Z,99924.88
2022-09-12T08:02:17.391Z,99922.22
2022-09-12T08:04:46.799Z,99922.81
2022-09-12T08:07:15.223Z,99881.69
2022-09-12T08:09:44.997Z,99914.53
2022-09-12T08:12:13.399Z,99921.31
2022-09-12T08:14:41.881Z,99921.22
2022-09-12T08:17:10.303Z,99889.31
2022-09-12T08:19:38.946Z,99912.63
2022-09-12T08:22:07.320Z,99909.00
2022-09-12T08:24:35.644Z,99926.66
2022-09-12T08:27:05.795Z,99916.72
2022-09-12T08:29:34.171Z,99923.50
2022-09-12T08:32:02.573Z,99919.22
2022-09-12T08:34:35.371Z,99921.19
2022-09-12T08:37:08.304Z,99940.44
2022-09-12T08:39:47.326Z,99921.66
2022-09-12T08:42:27.894Z,99899.09
2022-09-12T08:45:06.634Z,99918.53
2022-09-12T08:47:38.159Z,99897.19
2022-09-12T08:50:31.516Z,99894.44
2022-09-12T08:53:03.534Z,99921.34
2022-09-12T08:55:37.963Z,99922.59
2022-09-12T08:58:14.642Z,99887.50
2022-09-12T09:00:48.882Z,99923.53
2022-09-12T09:03:47.943Z,99918.81
2022-09-12T09:06:26.759Z,99887.78
2022-09-12T09:09:02.189Z,99918.38
2022-09-12T09:11:48.669Z,99915.44
2022-09-12T09:14:50.461Z,99914.22
2022-09-12T09:17:31.160Z,99917.06
2022-09-12T09:20:17.742Z,99892.53
2022-09-12T09:22:49.847Z,99915.41
2022-09-12T09:25:41.153Z,99865.38
2022-09-12T09:28:17.064Z,99901.97
2022-09-12T09:30:47.401Z,99887.09
2022-09-12T09:33:22.788Z,99856.19
2022-09-12T09:35:57.981Z,99906.78
2022-09-12T09:38:32.274Z,99904.75
2022-09-12T09:41:11.249Z,99913.75
2022-09-12T09:43:40.454Z,99870.84
2022-09-12T09:46:11.993Z,99902.09
2022-09-12T09:48:44.625Z,99900.34
2022-09-12T09:51:13.537Z,99911.56
2022-09-12T09:53:46.702Z,99909.06
2022-09-12T09:56:23.170Z,99832.03
2022-09-12T09:58:52.115Z,99887.03
2022-09-12T10:01:22.493Z,99910.59
2022-09-12T10:03:52.506Z,99847.16
2022-09-12T10:06:32.319Z,99892.41
2022-09-12T10:09:12.774Z,99904.63
2022-09-12T10:11:45.688Z,99907.50
2022-09-12T10:14:38.628Z,99907.41
2022-09-12T10:17:34.608Z,99883.91
2022-09-12T10:20:19.961Z,99905.47
2022-09-12T10:22:49.971Z,99904.00
2022-09-12T10:25:20.477Z,99894.16
2022-09-12T10:27:55.344Z,99897.81
2022-09-12T10:30:26.050Z,99864.81
2022-09-12T10:32:59.722Z,99900.84
2022-09-12T10:35:31.235Z,99901.53
2022-09-12T10:38:02.479Z,99866.34
2022-09-12T10:40:32.781Z,99893.28
2022-09-12T10:43:02.731Z,99897.50
2022-09-12T10:45:32.602Z,99899.28
2022-09-12T10:48:07.502Z,99895.34
2022-09-12T10:50:40.267Z,99861.84
2022-09-12T10:53:20.443Z,99893.41
2022-09-12T10:56:05.585Z,99891.09
2022-09-12T10:58:41.721Z,99856.72
2022-09-12T11:01:16.094Z,99878.19
2022-09-12T11:04:02.064Z,99836.38
2022-09-12T11:06:36.773Z,99900.50
2022-09-12T11:09:11.642Z,99897.59
2022-09-12T11:12:01.141Z,99905.53
2022-09-12T11:14:38.460Z,99870.63
2022-09-12T11:17:18.613Z,99892.78
2022-09-12T11:20:01.240Z,99896.44
2022-09-12T11:22:39.707Z,99889.78
2022-09-12T11:25:20.266Z,99890.72
2022-09-12T11:28:06.593Z,99856.72
2022-09-12T11:30:39.766Z,99886.97
2022-09-12T11:33:19.935Z,99848.72
2022-09-12T11:35:55.639Z,99876.47
2022-09-12T11:38:40.106Z,99864.63
2022-09-12T11:41:11.361Z,99813.63
2022-09-12T11:43:42.203Z,99895.78
2022-09-12T11:46:17.094Z,99858.75
2022-09-12T11:48:50.999Z,99886.66
2022-09-12T11:51:22.802Z,99852.47
2022-09-12T11:54:12.622Z,99874.59
2022-09-12T11:56:45.912Z,99844.38
2022-09-12T11:59:20.976Z,99883.53
2022-09-12T12:01:52.685Z,99880.50
2022-09-12T12:04:26.373Z,99873.91
2022-09-12T12:07:03.316Z,99858.16
2022-09-12T12:09:32.002Z,99839.50
2022-09-12T12:12:03.515Z,99843.31
2022-09-12T12:14:34.674Z,99821.78
2022-09-12T12:17:03.150Z,99783.06
2022-09-12T12:19:36.624Z,99866.63
2022-09-12T12:22:17.863Z,99859.09
2022-09-12T12:25:21.401Z,99851.81
2022-09-12T12:27:56.201Z,99816.47
2022-09-12T12:31:02.233Z,99844.75
2022-09-12T12:33:53.506Z,99846.66
2022-09-12T12:36:35.181Z,99808.06
2022-09-12T12:39:52.067Z,99852.66
2022-09-12T12:43:03.070Z,99855.66
2022-09-12T12:45:50.145Z,99853.44
2022-09-12T12:48:22.672Z,99857.06
2022-09-12T12:50:51.329Z,99851.31
2022-09-12T12:53:23.114Z,99823.41
2022-09-12T12:55:57.512Z,99802.19
2022-09-12T12:58:33.347Z,99854.69
2022-09-12T13:01:14.095Z,99841.84
2022-09-12T13:03:45.595Z,99855.13
2022-09-12T13:06:28.919Z,99759.09
2022-09-12T13:09:01.558Z,99840.75
2022-09-12T13:11:35.142Z,99784.81
2022-09-12T13:14:05.386Z,99782.88
2022-09-12T13:16:36.187Z,99824.06
2022-09-12T13:19:07.070Z,99820.69
2022-09-12T13:21:36.065Z,99832.84
2022-09-12T13:24:15.637Z,99817.28
2022-09-12T13:26:47.451Z,99834.84
2022-09-12T13:29:18.343Z,99834.50
2022-09-12T13:31:53.671Z,99848.41
2022-09-12T13:34:29.382Z,99777.03
2022-09-12T13:37:22.150Z,99792.78
2022-09-12T13:39:51.581Z,99845.28
2022-09-12T13:42:46.606Z,99840.09
2022-09-12T13:45:19.698Z,99833.69
2022-09-12T13:47:49.193Z,99831.88
2022-09-12T13:50:20.575Z,99801.28
2022-09-12T13:52:55.454Z,99828.63
2022-09-12T13:55:34.467Z,99799.34
2022-09-12T13:58:05.679Z,99825.94
2022-09-12T14:00:37.385Z,99782.84
2022-09-12T14:03:39.443Z,99761.09
2022-09-12T14:06:16.795Z,99823.59
2022-09-12T14:08:45.495Z,99828.09
2022-09-12T14:11:25.357Z,99836.84
2022-09-12T14:13:57.519Z,99837.53
2022-09-12T14:16:27.304Z,99825.41
2022-09-12T14:18:56.267Z,99841.63
2022-09-12T14:21:37.208Z,99838.13
2022-09-12T14:24:08.654Z,99786.25
2022-09-12T14:26:40.702Z,99815.84
2022-09-12T14:29:13.701Z,99835.53
2022-09-12T14:31:43.915Z,99842.53
2022-09-12T14:34:15.791Z,99796.97
2022-09-12T14:36:47.069Z,99778.28
2022-09-12T14:39:29.582Z,99840.75
2022-09-12T14:42:08.043Z,99831.41
2022-09-12T14:44:38.254Z,99791.78
2022-09-12T14:47:16.251Z,99844.88
2022-09-12T14:49:45.607Z,99846.41
2022-09-12T14:52:26.551Z,99851.00
2022-09-12T14:54:59.442Z,99815.09
2022-09-12T14:57:40.691Z,99841.66
2022-09-12T15:00:26.416Z,99852.94
2022-09-12T15:02:55.659Z,99845.03
2022-09-12T15:05:27.180Z,99828.69
2022-09-12T15:07:59.356Z,99822.72
2022-09-12T15:10:31.258Z,99831.53
2022-09-12T15:13:24.045Z,99852.13
2022-09-12T15:15:55.653Z,99802.19
2022-09-12T15:18:25.926Z,99820.31
2022-09-12T15:20:57.295Z,99854.66
2022-09-12T15:23:33.873Z,99856.53
2022-09-12T15:26:02.839Z,99833.34
2022-09-12T15:28:32.412Z,99834.19
2022-09-12T15:31:06.428Z,99846.28
2022-09-12T15:33:35.107Z,99850.69
2022-09-12T15:36:03.895Z,99828.50
2022-09-12T15:38:32.288Z,99868.25
2022-09-12T15:41:00.645Z,99866.66
2022-09-12T15:43:29.183Z,99849.63
2022-09-12T15:45:59.402Z,99869.47
2022-09-12T15:48:29.604Z,99867.81
2022-09-12T15:51:01.587Z,99860.19
2022-09-12T15:53:30.070Z,99869.72
2022-09-12T15:55:58.521Z,99872.38
2022-09-12T15:58:27.252Z,99873.28
2022-09-12T16:00:55.767Z,99877.72
2022-09-12T16:03:27.695Z,99875.19
2022-09-12T16:06:02.259Z,99885.59
2022-09-12T16:08:31.559Z,99876.97
2022-09-12T16:11:04.944Z,99854.78
2022-09-12T16:13:33.670Z,99882.31
2022-09-12T16:16:02.366Z,99884.97
2022-09-12T16:18:30.819Z,99883.31
2022-09-12T16:21:00.667Z,99879.06
2022-09-12T16:23:29.169Z,99847.34
2022-09-12T16:25:59.391Z,99843.13
2022-09-12T16:28:28.935Z,99862.06
2022-09-12T16:30:58.188Z,99847.56
2022-09-12T16:33:52.067Z,99878.53
2022-09-12T16:36:42.169Z,99881.25
2022-09-12T16:39:16.215Z,99885.63
2022-09-12T16:41:44.630Z,99841.81
2022-09-12T16:44:13.313Z,99873.66
2022-09-12T16:46:42.094Z,99889.19
2022-09-12T16:49:12.455Z,99864.31
2022-09-12T16:51:52.132Z,99841.09
2022-09-12T16:54:20.782Z,99897.06
2022-09-12T16:56:50.608Z,99895.38
2022-09-12T16:59:20.901Z,99844.66
2022-09-12T17:01:52.361Z,99797.31
2022-09-12T17:04:29.553Z,99822.31
2022-09-12T17:07:00.362Z,99901.53
2022-09-12T17:09:29.515Z,99891.13
2022-09-12T17:11:58.257Z,99892.03
2022-09-12T17:14:27.039Z,99900.75
2022-09-12T17:16:55.470Z,99885.28
2022-09-12T17:19:26.761Z,99869.00
2022-09-12T17:21:56.092Z,99873.31
2022-09-12T17:24:26.660Z,99845.03
2022-09-12T17:26:55.340Z,99905.25
2022-09-12T17:29:23.914Z,99885.47
2022-09-12T17:31:52.462Z,99912.09
2022-09-12T17:34:20.939Z,99885.41
2022-09-12T17:36:49.647Z,99881.13
2022-09-12T17:39:18.413Z,99906.88
2022-09-12T17:41:51.214Z,99879.34
2022-09-12T17:44:20.618Z,99899.09
2022-09-12T17:46:49.213Z,99898.25
2022-09-12T17:49:22.133Z,99912.94
2022-09-12T17:51:52.332Z,99902.53
2022-09-12T17:54:22.429Z,99866.47
2022-09-12T17:56:53.211Z,99907.75
2022-09-12T17:59:24.576Z,99901.69
2022-09-12T18:02:13.087Z,99896.50
2022-09-12T18:04:42.112Z,99886.25
2022-09-12T18:07:12.175Z,99832.91
2022-09-12T18:09:41.069Z,99904.22
2022-09-12T18:12:12.284Z,99868.97
2022-09-12T18:14:40.845Z,99906.75
2022-09-12T18:17:11.574Z,99903.28
2022-09-12T18:19:40.234Z,99902.31
2022-09-12T18:22:09.644Z,99897.09
2022-09-12T18:24:39.903Z,99896.19
2022-09-12T18:27:08.696Z,99885.84
2022-09-12T18:29:38.582Z,99894.41
2022-09-12T18:32:07.542Z,99847.91
2022-09-12T18:34:36.674Z,99839.28
2022-09-12T18:37:07.295Z,99899.47
2022-09-12T18:39:36.696Z,99865.91
2022-09-12T18:42:05.436Z,99896.78
2022-09-12T18:44:34.209Z,99898.50
2022-09-12T18:47:04.503Z,99899.34
2022-09-12T18:49:33.023Z,99899.31
2022-09-12T18:52:01.438Z,99894.09
2022-09-12T18:54:29.976Z,99895.81
2022-09-12T18:56:58.428Z,99894.97
2022-09-12T18:59:26.830Z,99895.78
2022-09-12T19:01:55.502Z,99893.19
2022-09-12T19:04:25.675Z,99901.88
2022-09-12T19:06:54.096Z,99886.25
2022-09-12T19:09:23.014Z,99847.53
2022-09-12T19:11:52.799Z,99891.44
2022-09-12T19:14:26.280Z,99889.69
2022-09-12T19:16:55.875Z,99893.16
2022-09-12T19:19:25.677Z,99874.25
2022-09-12T19:21:54.208Z,99895.72
2022-09-12T19:24:22.664Z,99896.56
2022-09-12T19:26:51.798Z,99894.81
2022-09-12T19:29:20.360Z,99897.50
2022-09-12T19:31:49.823Z,99899.25
2022-09-12T19:34:20.902Z,99895.81
2022-09-12T19:36:50.738Z,99895.81
2022-09-12T19:39:20.472Z,99866.53
2022-09-12T19:41:49.381Z,99898.41
2022-09-12T19:44:19.359Z,99900.19
2022-09-12T19:46:47.975Z,99895.81
2022-09-12T19:49:16.854Z,99873.47
2022-09-12T19:51:45.637Z,99844.28
2022-09-12T19:54:15.528Z,99868.28
2022-09-12T19:56:44.000Z,99877.69
2022-09-12T19:59:12.755Z,99900.06
2022-09-12T20:01:41.427Z,99891.41
2022-09-12T20:04:10.357Z,99829.66
2022-09-12T20:06:39.101Z,99891.56
2022-09-12T20:09:07.587Z,99866.69
2022-09-12T20:11:37.721Z,99827.09
2022-09-12T20:14:06.591Z,99889.94
2022-09-12T20:16:35.713Z,99860.75
2022-09-12T20:19:07.794Z,99876.25
2022-09-12T20:21:37.179Z,99886.59
2022-09-12T20:24:11.311Z,99862.56
2022-09-12T20:26:42.831Z,99823.81
2022-09-12T20:29:11.833Z,99872.03
2022-09-12T20:31:44.786Z,99860.84
2022-09-12T20:34:16.335Z,99888.41
2022-09-12T20:36:44.919Z,99885.00
2022-09-12T20:39:15.219Z,99884.97
2022-09-12T20:41:50.335Z,99884.97
2022-09-12T20:44:19.178Z,99870.34
2022-09-12T20:46:47.683Z,99880.63
2022-09-12T20:49:16.329Z,99884.97
2022-09-12T20:51:47.357Z,99868.59
2022-09-12T20:54:16.595Z,99823.00
2022-09-12T20:56:46.380Z,99840.19
2022-09-12T20:59:14.946Z,99876.31
2022-09-12T21:01:44.243Z,99877.19
2022-09-12T21:04:15.135Z,99879.81
2022-09-12T21:06:45.676Z,99858.22
2022-09-12T21:09:14.974Z,99871.16
2022-09-12T21:11:43.331Z,99871.16
2022-09-12T21:14:13.175Z,99845.38
2022-09-12T21:16:41.545Z,99872.91
2022-09-12T21:19:10.894Z,99821.38
2022-09-12T21:21:39.284Z,99872.91
2022-09-12T21:24:08.631Z,99867.78
2022-09-12T21:26:39.141Z,99842.78
2022-09-12T21:29:07.967Z,99873.72
2022-09-12T21:31:37.766Z,99881.53
2022-09-12T21:34:06.175Z,99880.69
2022-09-12T21:36:34.514Z,99872.03
2022-09-12T21:39:02.867Z,99849.69
2022-09-12T21:41:31.380Z,99870.28
2022-09-12T21:44:01.203Z,99869.50
2022-09-12T21:46:29.851Z,99832.50
2022-09-12T21:48:59.653Z,99866.91
2022-09-12T21:51:28.016Z,99860.88
2022-09-12T21:53:56.425Z,99858.38
2022-09-12T21:56:24.790Z,99859.22
2022-09-12T21:58:53.175Z,99855.78
2022-09-12T22:01:21.615Z,99860.09
2022-09-12T22:03:50.278Z,99816.34
2022-09-12T22:06:23.693Z,99857.63
2022-09-12T22:08:52.481Z,99855.13
2022-09-12T22:11:21.713Z,99856.94
2022-09-12T22:13:50.641Z,99826.06
2022-09-12T22:16:36.423Z,99861.41
2022-09-12T22:19:06.839Z,99843.41
2022-09-12T22:21:57.539Z,99856.34
2022-09-12T22:24:28.099Z,99851.22
2022-09-12T22:26:57.476Z,99866.84
2022-09-12T22:29:26.027Z,99804.88
2022-09-12T22:31:54.823Z,99855.69
2022-09-12T22:34:23.203Z,99785.16
2022-09-12T22:36:54.172Z,99856.53
2022-09-12T22:39:22.742Z,99825.56
2022-09-12T22:41:51.308Z,99853.03
2022-09-12T22:44:19.953Z,99848.78
2022-09-12T22:46:48.572Z,99803.22
2022-09-12T22:49:16.954Z,99848.81
2022-09-12T22:51:45.306Z,99827.34
2022-09-12T22:54:15.300Z,99731.06
2022-09-12T22:56:43.618Z,99829.09
2022-09-12T22:59:12.104Z,99842.81
2022-09-12T23:01:40.881Z,99842.81
2022-09-12T23:04:09.215Z,99838.56
2022-09-12T23:06:37.863Z,99829.09
2022-09-12T23:09:06.412Z,99836.00
2022-09-12T23:11:37.113Z,99836.00
2022-09-12T23:14:05.482Z,99831.69
2022-09-12T23:16:33.877Z,99828.28
2022-09-12T23:19:02.472Z,99832.59
2022-09-12T23:21:31.222Z,99827.41
2022-09-12T23:23:59.537Z,99817.88
2022-09-12T23:26:28.435Z,99818.78
2022-09-12T23:29:00.296Z,99809.34
2022-09-12T23:31:30.962Z,99825.66
2022-09-12T23:34:03.041Z,99817.91
2022-09-12T23:36:31.817Z,99815.34
2022-09-12T23:39:00.260Z,99821.38
2022-09-12T23:41:28.696Z,99819.69
2022-09-12T23:43:58.821Z,99821.41
2022-09-12T23:46:28.844Z,99794.75
2022-09-12T23:48:59.659Z,99811.06
2022-09-12T23:51:28.055Z,99815.41
2022-09-12T23:53:58.726Z,99811.13
2022-09-12T23:56:27.384Z,99820.66
2022-09-12T23:58:55.736Z,99762.16
